CheckWX is a tool to help pilots better visualize weather data.  It is not intended as a substitute for an official pre-flight weather briefing.

06:54:34 UTC

KNAK METAR
United States Naval Academy Airport
Annapolis, Maryland, USA
Current

1 hour ago

KNAK 210554Z AUTO 30006KT 10SM CLR 07/M01 A3021 RMK AO2 SLP230 T00721011 10094 20067 53006
Observed
Nov-21 @ 05:54 UTC
Wind
  • 300° at 6 KTS
Visibility
10 SM
Flight Rules
VFR
Cloud Levels
  • Clear skies
Temperature
C / 45°F
Dewpoint
-1°C / 30°F
Humidity
57%
Altimeter
30.21" Hg
Pressure
1023.02 hPa
Previous

2 hours ago

KNAK 210454Z AUTO 30006KT 10SM CLR 08/00 A3019 RMK AO2 SLP226 T00780000 401110072
Observed
Nov-21 @ 04:54 UTC
Wind
  • 300° at 6 KTS
Visibility
10 SM
Flight Rules
VFR
Cloud Levels
  • Clear skies
Temperature
C / 46°F
Dewpoint
C / 32°F
Humidity
57%
Altimeter
30.19" Hg
Pressure
1022.32 hPa
Previous

3 hours ago

KNAK 210354Z AUTO 30008KT 10SM CLR 08/M01 A3020 RMK AO2 SLP227 T00831006
Observed
Nov-21 @ 03:54 UTC
Wind
  • 300° at 8 KTS
Visibility
10 SM
Flight Rules
VFR
Cloud Levels
  • Clear skies
Temperature
C / 46°F
Dewpoint
-1°C / 30°F
Humidity
53%
Altimeter
30.2" Hg
Pressure
1022.72 hPa